Powhatan Point, Ohio
Current Conditions -  °F | °C
As of 8:53 PM on Thursday 20 Nov 2014 (Local Time) from KHLG Reporting Station
Overcast Overcast  
Wind Chill: 12°   Ceiling: 4900
Heat Index: 25°   Visibility: 10mi
Dew Point: 12°   Wind: 16mph
Humidity: 58%   Direction: 250°WSW
Pressure: 30.11"   Gusts: 22mph
Location:  39.86°N, 80.82°W
Report Text: KHLG 210153Z 25014G19KT 10SM OVC049 M04/M11 A3011 RMK AO2 SLP213 T10391111
Loading
Personal Weather Stations






























Interactive Weather Map New forecast layout! Learn more

10-Day Weather Forecast

Advertisements
Track Severe Weather on mobile